Terminal Aerodrome Forecast
Issued by NWS Blacksburg, VA

Home | Current Version | Previous Version | Text Only | Print | Product List | Glossary On
Versions: 1 2 3 4 5 6 7 8 9 10 11 12 13 14 15 16 17 18 19 20 21 22 23 24 25 26 27 28
000
FTUS41 KRNK 141130
TAFLYH
TAF
KLYH 141130Z 1412/1512 00000KT P6SM SCT250
     FM142000 16006KT P6SM OVC080
     FM150400 14006KT 4SM -SN BR OVC015
     FM150700 13004KT 2SM -SN BR OVC009=

USA.gov is the U.S. government's official web portal to all federal, state and local government web resources and services.